»·PEaware :: SKW8948 KPHX-KLAX

SKW8948 :: KPHX-KLAX

FLIGHT INFORMATION

Flight Status: Arrived
Operator:
SkyWest Airlines
More flights by this operator :: More flights under this callsign
Pilot: Chris O. (30060)
Aircraft: EMBRAER EMB-170/175
(E170)
More flights by this aircraft type
Origin: KPHX Phoenix Sky Harbor Intl
United States
Destination: KLAX Los Angeles Intl
United States
More flights between these airports :: More routes between these airports
Route: KEENS2 MESSI ESTWD HLYWD1
File this flight plan on PilotEdge
Remarks: RMK / SIMBRIEF
Altitude:
(Current/Filed)
32,000ft
Speed:
(Current/Filed)
409kts
Departed: 15-Jun-22 07:28 PM
Arrived: 15-Jun-22 08:24 PM
Distance/Time
Traveled:
321nm/0:55
Distance/Time
To Go:
Arrived

Flight Plot

Page will automatically refresh every two minutes.

Flight plan parsing failed; only flown route is shown


Map Options




Map Legend


Flown Route
Filed Route
Departure Airport
Arrival Airport
Navaid (VOR, NDB)
Fix

Horizontal Profiles

Position Reports

Time Latitude Longitude Heading Altitude Ground
Speed
15-Jun-22 19:08 33.434705 -112.014241 107 1123ft 0kts
15-Jun-22 19:09 33.434705 -112.014241 107 1123ft 0kts
15-Jun-22 19:10 33.434705 -112.014241 107 1123ft 0kts
15-Jun-22 19:11 33.434705 -112.014241 107 1123ft 0kts
15-Jun-22 19:12 33.434705 -112.014241 107 1123ft 0kts
15-Jun-22 19:13 33.434705 -112.014241 107 1123ft 0kts
15-Jun-22 19:14 33.434705 -112.014241 107 1123ft 0kts
15-Jun-22 19:15 33.434705 -112.014241 107 1123ft 0kts
15-Jun-22 19:16 33.434705 -112.014241 107 1123ft 0kts
15-Jun-22 19:17 33.434844 -112.014732 119 1123ft 1kts
15-Jun-22 19:18 33.435024 -112.014914 163 1123ft 0kts
15-Jun-22 19:19 33.435024 -112.014914 163 1123ft 0kts
15-Jun-22 19:20 33.435024 -112.014914 163 1123ft 0kts
15-Jun-22 19:21 33.434975 -112.014912 182 1123ft 3kts
15-Jun-22 19:22 33.432886 -112.017202 270 1120ft 19kts
15-Jun-22 19:23 33.432741 -112.022618 194 1116ft 5kts
15-Jun-22 19:24 33.432149 -112.025447 271 1115ft 15kts
15-Jun-22 19:25 33.432030 -112.026840 213 1113ft 0kts
15-Jun-22 19:26 33.431562 -112.026968 184 1113ft 5kts
15-Jun-22 19:27 33.431060 -111.996858 89 1621ft 207kts
15-Jun-22 19:28 33.432942 -111.917725 87 3981ft 248kts
15-Jun-22 19:29 33.408537 -111.845187 172 6193ft 268kts
15-Jun-22 19:30 33.378361 -111.905046 287 8571ft 256kts
15-Jun-22 19:31 33.369909 -112.004417 266 10951ft 353kts
15-Jun-22 19:32 33.382708 -112.131138 279 13663ft 396kts
15-Jun-22 19:33 33.399042 -112.263430 279 16722ft 408kts
15-Jun-22 19:34 33.415672 -112.399650 280 19814ft 420kts
15-Jun-22 19:35 33.433103 -112.539698 280 23223ft 435kts
15-Jun-22 19:36 33.447878 -112.685204 274 26619ft 448kts
15-Jun-22 19:37 33.465350 -112.830506 289 29968ft 440kts
15-Jun-22 19:38 33.511056 -112.966914 290 31804ft 457kts
15-Jun-22 19:39 33.558556 -113.106726 290 31814ft 457kts
15-Jun-22 19:40 33.607442 -113.250116 290 31808ft 469kts
15-Jun-22 19:41 33.659439 -113.394110 292 31807ft 470kts
15-Jun-22 19:42 33.712668 -113.535591 292 31807ft 465kts
15-Jun-22 19:43 33.766150 -113.677331 292 31783ft 466kts
15-Jun-22 19:44 33.817942 -113.819912 290 31766ft 465kts
15-Jun-22 19:45 33.867413 -113.963713 290 31769ft 465kts
15-Jun-22 19:46 33.914079 -114.108316 280 31772ft 462kts
15-Jun-22 19:47 33.941187 -114.254856 280 31764ft 448kts
15-Jun-22 19:48 33.968263 -114.401169 280 31765ft 448kts
15-Jun-22 19:49 33.995467 -114.547551 280 31766ft 448kts
15-Jun-22 19:50 34.022145 -114.693657 277 31762ft 446kts
15-Jun-22 19:51 34.043048 -114.841184 277 31764ft 447kts
15-Jun-22 19:52 34.064112 -114.988945 277 31764ft 448kts
15-Jun-22 19:53 34.085953 -115.137357 277 31765ft 452kts
15-Jun-22 19:54 34.106849 -115.282651 277 31806ft 441kts
15-Jun-22 19:55 34.128073 -115.428642 278 31903ft 442kts
15-Jun-22 19:56 34.149400 -115.574466 278 31923ft 442kts
15-Jun-22 19:57 34.164361 -115.711011 264 31930ft 438kts
15-Jun-22 19:58 34.147894 -115.865945 260 31925ft 438kts
15-Jun-22 19:59 34.133377 -116.011238 261 31925ft 438kts
15-Jun-22 20:00 34.119769 -116.157508 262 31929ft 445kts
15-Jun-22 20:01 34.105953 -116.305583 262 31448ft 440kts
15-Jun-22 20:02 34.091958 -116.448488 262 29385ft 423kts
15-Jun-22 20:03 34.076543 -116.586507 261 27317ft 411kts
15-Jun-22 20:04 34.059461 -116.720426 263 25259ft 399kts
15-Jun-22 20:05 34.045538 -116.850726 263 23218ft 388kts
15-Jun-22 20:06 34.031099 -116.977124 263 21178ft 377kts
15-Jun-22 20:07 34.018611 -117.102712 263 18154ft 359kts
15-Jun-22 20:08 34.007741 -117.210769 261 15154ft 314kts
15-Jun-22 20:09 33.995884 -117.315696 261 13899ft 310kts
15-Jun-22 20:10 33.982554 -117.427852 261 12076ft 341kts
15-Jun-22 20:11 33.983211 -117.538450 281 10973ft 335kts
15-Jun-22 20:12 34.001553 -117.643943 281 9959ft 295kts
15-Jun-22 20:13 34.002606 -117.736848 261 9061ft 276kts
15-Jun-22 20:14 33.993349 -117.827057 261 8006ft 264kts
15-Jun-22 20:15 33.984433 -117.915380 261 6530ft 267kts
15-Jun-22 20:16 33.975403 -118.004959 261 4992ft 261kts
15-Jun-22 20:17 33.967128 -118.084513 261 4676ft 228kts
15-Jun-22 20:18 33.959814 -118.157662 261 3568ft 202kts
15-Jun-22 20:19 33.953896 -118.221274 261 3580ft 174kts
15-Jun-22 20:20 33.948907 -118.277988 261 3004ft 153kts
15-Jun-22 20:22 33.944448 -118.327945 261 1878ft 143kts
15-Jun-22 20:23 33.938694 -118.374665 254 456ft 137kts
15-Jun-22 20:24 33.935630 -118.405477 291 123ft 28kts
15-Jun-22 20:25 33.935868 -118.407629 265 125ft 11kts
15-Jun-22 20:26 33.935921 -118.408574 288 125ft 0kts
15-Jun-22 20:27 33.935921 -118.408574 288 125ft 0kts

Navigation Log

Ident Type
Flight plan parsing failed, navigation log unavailable